Arpin, Wisconsin
Current Conditions -  °F | °C
As of 6:54 AM on Saturday 20 Dec 2014 (Local Time) from KMFI Reporting Station
Haze Haze  
Wind Chill: 16°   Ceiling: 2500
Heat Index: 25°   Visibility: 6mi
Dew Point: 22°   Wind: 8mph
Humidity: 88%   Direction: 170°S
Pressure: 30.2"   Gusts: NA
Location:  44.54°N, 90.04°W
Report Text: KMFI 201254Z AUTO 17007KT 6SM BR FEW005 OVC025 M04/M06 A3020 RMK AO2 SLP246 T10391056
Loading
Personal Weather Stations






























Interactive Weather Map New forecast layout! Learn more

10-Day Weather Forecast

Advertisements
Track Severe Weather on mobile